Detalii statie UNIVERSITATEA AGRICOLA IASI [0000198B]

Toti senzorii

Date Temperatura solului [C]Precipitatii [mm]Voltaj baterie [mV]HC Air temperature [C]HC Relative humidity [%]Punctul de roua [C]
medieminmaxsumaultimamedieminmaxmediemediemin
2018-10-13 17:00:00 11.5 11.5 11.6 0 7128 18.29 17.29 18.91 47.68 6.8 6.4
2018-10-13 18:00:00 11.3 11.2 11.6 0 7040 15.36 13.4 17.17 56.75 6.6 6.3
2018-10-13 19:00:00 11 10.9 11.2 0 6992 12.73 11.5 14 65.97 6.3 5.9
2018-10-13 20:00:00 10.8 10.7 11 0 6942 9.86 8.61 11.1 74.63 5.4 4.8
2018-10-13 21:00:00 10.5 10.4 10.7 0 6932 7.72 6.93 8.36 84.28 5.1 4.7
2018-10-13 22:00:00 10.2 10 10.4 0 6914 6.31 5.48 7 91.19 4.8 4.3
2018-10-13 23:00:00 9.8 9.7 10.1 0 6914 4.64 3.82 5.65 98.53 4.3 3.8
2018-10-14 00:00:00 9.5 9.4 9.8 0 6894 4.45 3.53 5.39 100 4.4 3.5
2018-10-14 01:00:00 9.2 9.1 9.5 0 6874 3.31 2.53 4.14 100 3.2 2.5
2018-10-14 02:00:00 8.9 8.7 9.1 0 6874 2.31 1.37 2.99 100 2.2 1.3
2018-10-14 03:00:00 8.6 8.5 8.8 0 6874 1.79 1.03 2.21 100 1.7 1
2018-10-14 04:00:00 8.4 8.3 8.5 0 6854 1.56 1.08 2.07 100 1.5 1
2018-10-14 05:00:00 8.1 8 8.4 0 6844 1.17 0.39 1.9 100 1.1 0.3
2018-10-14 06:00:00 7.8 7.7 8 0 6834 0.39 -0.71 1.08 100 0.3 -0.6
2018-10-14 07:00:00 7.6 7.5 7.9 0 6972 0.26 -0.85 0.91 100 0.2 -0.7
2018-10-14 08:00:00 7.6 7.5 7.8 0 7342 2.05 0.72 4.68 100 2 0.7
2018-10-14 09:00:00 7.9 7.7 8.2 0 7332 7.09 4.86 9.74 95.21 6.2 4.8
2018-10-14 10:00:00 8.2 8.1 8.4 0 7324 11.41 9.94 13.04 76.85 7.3 6.7
2018-10-14 11:00:00 8.6 8.4 9 0 7314 15.59 13.81 17.33 61.19 7.9 6.8
2018-10-14 12:00:00 9.1 8.9 9.5 0 7196 18.01 16.89 19.62 57.15 9.2 8.4
2018-10-14 13:00:00 9.5 9.4 9.8 0 7314 19.36 18.75 20.05 56.83 10.3 9.7
2018-10-14 14:00:00 9.9 9.7 10.2 0 7314 20.57 19.54 21.47 55.15 11 10.2
2018-10-14 15:00:00 10.3 10.1 10.5 0 7284 20.92 20.65 21.58 54.83 11.3 10.7
2018-10-14 16:00:00 10.5 10.4 10.6 0 7148 20.43 19.59 21.42 55.19 11 10.4
2018-10-14 17:00:00 10.6 10.4 10.7 0 7050 18.64 16.51 19.63 58.92 10.2 9.4
2018-10-14 18:00:00 10.5 10.4 10.6 0 7000 15.99 15.02 17.3 64.54 9.1 8.5
2018-10-14 19:00:00 10.3 10.2 10.4 0 6972 13.94 12.75 15.1 70.26 8.5 7.9
2018-10-14 20:00:00 10.1 10 10.3 0 6922 11.05 9.57 12.5 80.61 7.6 7.2
2018-10-14 21:00:00 9.9 9.9 10.1 0 6922 9.11 7.65 10.44 87.53 6.9 6.3
2018-10-14 22:00:00 9.7 9.6 9.9 0 6904 7.64 7.08 8.09 95.9 6.9 6.6
2018-10-14 23:00:00 9.5 9.3 9.8 0 6894 6.73 6.24 7.16 99.87 6.6 6.2
2018-10-15 00:00:00 9.2 9.2 9.4 0 6874 5.7 4.87 6.48 100 5.6 4.8
2018-10-15 01:00:00 9 8.9 9.1 0 6854 4.4 3.94 5 100 4.3 3.9
2018-10-15 02:00:00 8.8 8.6 8.9 0 6864 4.06 3.74 4.85 100 4 3.7
2018-10-15 03:00:00 8.6 8.5 8.8 0 6844 3.72 2.59 4.88 100 3.6 2.5
2018-10-15 04:00:00 8.4 8.4 8.6 0 6844 3.31 2.62 4.07 100 3.2 2.6
2018-10-15 05:00:00 8.2 8.2 8.4 0 6844 3.08 2.63 3.45 100 3 2.6
2018-10-15 06:00:00 8 7.9 8.2 0 6834 1.95 1.35 2.43 100 1.9 1.3
2018-10-15 07:00:00 7.7 7.6 8 0 6942 2 1.59 2.73 100 1.9 1.5
2018-10-15 08:00:00 7.8 7.7 8 0 7342 4.1 2.81 6 100 4 2.8
2018-10-15 09:00:00 8.1 7.9 8.3 0 7324 8.3 5.99 11.1 97.89 7.9 5.9
2018-10-15 10:00:00 8.4 8.2 8.6 0 7324 13.02 10.86 15.27 85.09 10.3 9.9
2018-10-15 11:00:00 8.7 8.5 9 0 7314 17.06 15.57 18.23 70.31 11.4 10.3
2018-10-15 12:00:00 9.2 8.9 9.5 0 7216 18.86 18 19.58 60.25 10.8 10
2018-10-15 13:00:00 9.6 9.4 9.9 0 7314 20.07 19.35 20.58 53.12 10 9.2
2018-10-15 14:00:00 10 9.9 10.4 0 7314 21.01 20.57 21.74 52.13 10.6 10
2018-10-15 15:00:00 10.3 10.1 10.5 0 7274 21.53 21.18 22.23 51.96 11 10.6